Главная страница
METAR-TAF:

METAR-TAF

Аэропорты :

Куньмин Чаншуй

Куньмин, Китай

широта: 25-01N, долгота: 102-41E, высота над уровнем моря: 1892 м

Текущие метеонаблюдения

Эта сводка был подготовлена 29 минут назад, в 11:00 UTC
Ветер 10 Узел от юго-западный
Температура 11°C
Влажность 82%
Давление 1020 hPa
Видимость 10 км и более
Отдельные облака на высоте 2300 фута
Сплошная облачность на высоте 4000 фута

METAR: ZPPP 191100Z 22005MPS 9999 SCT023 OVC040 11/08 Q1020 NOSIG

Время: 19:29 (11:29 UTC)

Прогноз

Эта сводка был подготовлена 10 часа и 20 минут назад, в 01:09 UTC
Прогноз действительный с 19-го 06 UTC до 20-го 06 UTC
Ветер 23 Узел от юго-западный с порывами до 39 Узел
Видимость 10 км и более
Отдельные облака на высоте 2000 фута
Рассеянная облачность на высоте 3300 фута
изменения
С 19-го 10 UTC до 19-го 11 UTC
Ветер 14 Узел от юго-западный

TAF: ZPPP 190109Z 1906/2006 22012G20MPS 9999 SCT020 BKN033 TX15/1908Z TN08/1923Z BECMG 1910/1911 22007MPS

Метеонаблюдения и прогнозы для более 4000 аэропортов (сводки METAR и TAF).

Имеющиеся станции представлены на карте желтыми и красными точками.

Чтобы увидеть название станции, наведите на нее мышь.

Затем щелкните, чтобы увидеть метеонаблюдения и метеопрогнозы.

Управление картой: чтобы увеличить масштаб, щелкните зеленые кнопки с черным крестиком; чтобы уменьшить масштаб, щелкните зеленую кнопку с тире; для просмотра соседних карт щелкайте зеленые стрелки.


METAR-TAF: